createdAt,value
2022-09-04T00:00:15.018Z,1.50
2022-09-04T00:03:05.151Z,1.40
2022-09-04T00:05:50.456Z,1.50
2022-09-04T00:08:42.794Z,1.80
2022-09-04T00:11:23.783Z,1.70
2022-09-04T00:13:58.793Z,1.60
2022-09-04T00:16:48.312Z,1.70
2022-09-04T00:19:46.028Z,1.40
2022-09-04T00:22:42.412Z,1.60
2022-09-04T00:25:32.374Z,1.70
2022-09-04T00:28:28.564Z,1.70
2022-09-04T00:31:05.966Z,1.60
2022-09-04T00:34:07.637Z,1.70
2022-09-04T00:36:41.163Z,1.90
2022-09-04T00:39:40.458Z,1.90
2022-09-04T00:42:53.669Z,1.80
2022-09-04T00:45:28.117Z,2.00
2022-09-04T00:48:08.701Z,1.80
2022-09-04T00:50:55.979Z,2.00
2022-09-04T00:53:37.930Z,2.00
2022-09-04T00:56:38.898Z,1.80
2022-09-04T00:59:26.853Z,1.90
2022-09-04T01:02:06.875Z,1.90
2022-09-04T01:04:40.709Z,1.90
2022-09-04T01:07:24.242Z,2.00
2022-09-04T01:10:30.770Z,1.90
2022-09-04T01:13:27.898Z,1.80
2022-09-04T01:16:05.600Z,2.00
2022-09-04T01:18:44.353Z,1.90
2022-09-04T01:21:30.589Z,2.00
2022-09-04T01:24:18.278Z,1.90
2022-09-04T01:27:21.790Z,2.10
2022-09-04T01:30:21.846Z,1.90
2022-09-04T01:33:24.644Z,1.90
2022-09-04T01:36:11.536Z,1.80
2022-09-04T01:38:59.205Z,2.00
2022-09-04T01:41:38.217Z,1.90
2022-09-04T01:44:09.898Z,1.90
2022-09-04T01:47:03.613Z,2.00
2022-09-04T01:49:44.313Z,2.10
2022-09-04T01:52:22.034Z,2.10
2022-09-04T01:54:57.411Z,2.10
2022-09-04T01:57:50.443Z,2.10
2022-09-04T02:00:23.697Z,2.10
2022-09-04T02:03:02.460Z,2.10
2022-09-04T02:05:45.697Z,1.90
2022-09-04T02:08:45.690Z,1.90
2022-09-04T02:14:09.735Z,2.00
2022-09-04T02:17:00.689Z,2.00
2022-09-04T02:20:16.717Z,2.00
2022-09-04T02:23:12.095Z,1.90
2022-09-04T02:26:29.525Z,2.10
2022-09-04T02:29:03.805Z,2.40
2022-09-04T02:32:00.348Z,2.00
2022-09-04T02:34:45.508Z,2.10
2022-09-04T02:37:26.727Z,2.20
2022-09-04T02:40:13.823Z,2.10
2022-09-04T02:43:04.093Z,2.20
2022-09-04T02:49:08.262Z,2.10
2022-09-04T02:51:55.121Z,2.20
2022-09-04T02:54:39.086Z,2.10
2022-09-04T02:57:48.201Z,2.10
2022-09-04T03:00:21.377Z,2.40
2022-09-04T03:03:01.749Z,2.10
2022-09-04T03:08:13.736Z,2.20
2022-09-04T03:10:48.502Z,2.20
2022-09-04T03:13:35.973Z,2.00
2022-09-04T03:16:32.695Z,2.20
2022-09-04T03:19:13.037Z,2.30
2022-09-04T03:22:11.039Z,2.50
2022-09-04T03:25:05.490Z,2.20
2022-09-04T03:27:34.846Z,2.20
2022-09-04T03:30:10.690Z,2.20
2022-09-04T03:32:57.396Z,2.30
2022-09-04T03:35:34.797Z,2.10
2022-09-04T03:38:20.743Z,1.80
2022-09-04T03:41:26.544Z,2.10
2022-09-04T03:44:36.493Z,2.30
2022-09-04T03:49:44.339Z,2.10
2022-09-04T03:52:28.212Z,2.10
2022-09-04T03:55:23.750Z,1.90
2022-09-04T03:58:21.554Z,2.30
2022-09-04T04:00:57.362Z,2.00
2022-09-04T04:03:56.486Z,2.00
2022-09-04T04:06:56.474Z,1.80
2022-09-04T04:12:04.578Z,1.90
2022-09-04T04:14:47.562Z,2.10
2022-09-04T04:17:24.840Z,1.90
2022-09-04T04:20:18.702Z,2.20
2022-09-04T04:22:55.166Z,2.20
2022-09-04T04:25:52.403Z,2.00
2022-09-04T04:28:42.742Z,1.90
2022-09-04T04:31:20.166Z,2.00
2022-09-04T04:34:25.562Z,1.90
2022-09-04T04:37:09.440Z,2.10
2022-09-04T04:40:02.506Z,2.00
2022-09-04T04:42:44.477Z,2.00
2022-09-04T04:45:37.296Z,1.80
2022-09-04T04:48:27.069Z,2.00
2022-09-04T04:54:27.954Z,1.80
2022-09-04T04:57:02.357Z,1.90
2022-09-04T05:00:08.725Z,1.90
2022-09-04T05:02:43.104Z,1.80
2022-09-04T05:05:41.836Z,2.00
2022-09-04T05:08:15.234Z,1.80
2022-09-04T05:11:27.096Z,1.80
2022-09-04T05:14:27.646Z,1.90
2022-09-04T05:17:17.688Z,1.90
2022-09-04T05:20:18.593Z,1.80
2022-09-04T05:23:12.395Z,1.90
2022-09-04T05:25:51.231Z,1.90
2022-09-04T05:28:53.389Z,1.90
2022-09-04T05:31:43.367Z,2.00
2022-09-04T05:34:14.396Z,2.00
2022-09-04T05:37:21.453Z,2.00
2022-09-04T05:40:01.296Z,1.90
2022-09-04T05:43:00.377Z,1.90
2022-09-04T05:46:03.897Z,2.10
2022-09-04T05:48:43.337Z,1.80
2022-09-04T05:51:30.008Z,2.00
2022-09-04T05:54:33.317Z,1.80
2022-09-04T05:57:36.597Z,1.90
2022-09-04T06:00:14.890Z,2.00
2022-09-04T06:02:46.666Z,1.70
2022-09-04T06:05:37.005Z,1.70
2022-09-04T06:08:33.448Z,1.70
2022-09-04T06:11:23.526Z,2.00
2022-09-04T06:14:05.011Z,1.90
2022-09-04T06:16:58.561Z,1.70
2022-09-04T06:19:51.639Z,2.00
2022-09-04T06:22:55.791Z,1.90
2022-09-04T06:26:00.491Z,2.10
2022-09-04T06:28:49.056Z,1.90
2022-09-04T06:31:20.093Z,1.80
2022-09-04T06:34:26.653Z,2.00
2022-09-04T06:37:00.953Z,2.10
2022-09-04T06:39:32.667Z,2.00
2022-09-04T06:42:15.181Z,2.10
2022-09-04T06:44:53.901Z,1.60
2022-09-04T06:47:28.241Z,1.70
2022-09-04T06:50:14.085Z,1.80
2022-09-04T06:53:04.548Z,1.90
2022-09-04T06:55:46.059Z,2.10
2022-09-04T06:58:19.597Z,2.00
2022-09-04T07:01:09.129Z,2.00
2022-09-04T07:04:05.133Z,2.20
2022-09-04T07:06:59.683Z,1.90
2022-09-04T07:10:05.116Z,1.80
2022-09-04T07:12:53.378Z,2.10
2022-09-04T07:15:44.965Z,1.90
2022-09-04T07:18:38.112Z,2.10
2022-09-04T07:21:43.019Z,1.70
2022-09-04T07:24:17.742Z,2.00
2022-09-04T07:27:15.987Z,1.80
2022-09-04T07:30:04.674Z,2.00
2022-09-04T07:32:55.687Z,2.00
2022-09-04T07:35:32.800Z,1.70
2022-09-04T07:38:29.437Z,2.20
2022-09-04T07:41:10.814Z,2.00
2022-09-04T07:43:43.416Z,2.20
2022-09-04T07:46:49.796Z,2.10
2022-09-04T07:49:21.449Z,1.90
2022-09-04T07:51:56.287Z,2.00
2022-09-04T07:54:53.830Z,2.20
2022-09-04T07:57:53.900Z,2.30
2022-09-04T08:00:23.036Z,2.30
2022-09-04T08:03:18.058Z,2.10
2022-09-04T08:05:52.432Z,2.30
2022-09-04T08:08:40.031Z,2.20
2022-09-04T08:11:38.485Z,2.30
2022-09-04T08:14:28.862Z,2.20
2022-09-04T08:17:06.617Z,2.50
2022-09-04T08:19:46.458Z,2.40
2022-09-04T08:22:28.269Z,2.20
2022-09-04T08:25:24.251Z,2.20
2022-09-04T08:28:00.250Z,2.00
2022-09-04T08:31:02.449Z,2.20
2022-09-04T08:33:54.350Z,2.10
2022-09-04T08:36:42.313Z,1.90
2022-09-04T08:39:20.514Z,2.10
2022-09-04T08:42:14.940Z,2.20
2022-09-04T08:44:46.115Z,1.80
2022-09-04T08:47:20.072Z,2.00
2022-09-04T08:50:06.893Z,1.70
2022-09-04T08:53:03.741Z,2.20
2022-09-04T08:55:50.217Z,1.90
2022-09-04T08:58:30.443Z,2.20
2022-09-04T09:01:37.114Z,2.00
2022-09-04T09:04:14.648Z,2.00
2022-09-04T09:07:31.483Z,1.90
2022-09-04T09:10:33.620Z,2.10
2022-09-04T09:13:36.957Z,1.70
2022-09-04T09:16:36.727Z,1.90
2022-09-04T09:19:24.400Z,2.00
2022-09-04T09:22:40.411Z,1.80
2022-09-04T09:25:22.328Z,2.10
2022-09-04T09:28:15.092Z,2.10
2022-09-04T09:31:10.957Z,2.10
2022-09-04T09:33:57.655Z,2.00
2022-09-04T09:36:36.356Z,1.80
2022-09-04T09:39:07.311Z,1.60
2022-09-04T09:42:07.821Z,1.80
2022-09-04T09:45:07.060Z,1.60
2022-09-04T09:48:11.506Z,2.10
2022-09-04T09:50:55.667Z,1.90
2022-09-04T09:53:47.422Z,1.70
2022-09-04T09:56:34.379Z,2.00
2022-09-04T09:59:10.970Z,2.00
2022-09-04T10:01:58.843Z,2.30
2022-09-04T10:04:49.642Z,2.40
2022-09-04T10:07:55.198Z,1.90
2022-09-04T10:10:56.039Z,1.80
2022-09-04T10:13:51.041Z,1.90
2022-09-04T10:16:38.189Z,1.70
2022-09-04T10:19:10.322Z,1.80
2022-09-04T10:22:11.175Z,1.60
2022-09-04T10:24:52.024Z,1.70
2022-09-04T10:27:54.572Z,1.60
2022-09-04T10:30:49.803Z,1.70
2022-09-04T10:38:04.124Z,1.80
2022-09-04T10:41:21.744Z,1.80
2022-09-04T10:44:47.536Z,1.60
2022-09-04T10:50:54.344Z,1.30
2022-09-04T10:53:53.088Z,1.70
2022-09-04T10:56:50.803Z,1.70
2022-09-04T10:59:36.341Z,1.40
2022-09-04T11:02:36.891Z,1.60
2022-09-04T11:05:24.984Z,1.60
2022-09-04T11:08:45.846Z,1.70
2022-09-04T11:11:42.136Z,1.70
2022-09-04T11:14:29.537Z,2.00
2022-09-04T11:17:24.352Z,1.60
2022-09-04T11:20:35.311Z,2.00
2022-09-04T11:23:28.613Z,1.80
2022-09-04T11:26:55.606Z,1.50
2022-09-04T11:30:10.462Z,1.90
2022-09-04T11:32:55.644Z,1.60
2022-09-04T11:36:06.140Z,1.70
2022-09-04T11:39:12.371Z,1.80
2022-09-04T11:41:43.409Z,1.70
2022-09-04T11:44:26.800Z,1.70
2022-09-04T11:51:40.928Z,1.90
2022-09-04T11:54:47.460Z,1.70
2022-09-04T11:57:59.598Z,1.70
2022-09-04T12:01:16.891Z,1.40
2022-09-04T12:04:04.009Z,1.70
2022-09-04T12:06:54.883Z,1.50
2022-09-04T12:09:35.434Z,2.90
2022-09-04T12:12:12.822Z,1.90
2022-09-04T12:15:07.370Z,2.00
2022-09-04T12:21:42.107Z,1.70
2022-09-04T12:24:51.943Z,1.70
2022-09-04T12:27:26.260Z,1.60
2022-09-04T12:30:51.677Z,1.50
2022-09-04T12:38:01.054Z,1.90
2022-09-04T12:41:30.170Z,1.70
2022-09-04T12:44:17.510Z,1.50
2022-09-04T12:47:14.371Z,1.60
2022-09-04T12:49:49.004Z,2.20
2022-09-04T12:52:23.249Z,1.80
2022-09-04T12:55:01.753Z,1.80
2022-09-04T12:58:13.813Z,1.60
2022-09-04T13:01:32.360Z,1.80
2022-09-04T13:04:28.998Z,1.90
2022-09-04T13:07:15.700Z,1.70
2022-09-04T13:10:13.564Z,1.70
2022-09-04T13:12:53.320Z,1.70
2022-09-04T13:16:09.657Z,1.60
2022-09-04T13:19:10.674Z,1.60
2022-09-04T13:22:06.303Z,1.80
2022-09-04T13:28:11.612Z,1.90
2022-09-04T13:31:09.662Z,2.00
2022-09-04T13:33:41.122Z,2.10
2022-09-04T13:39:57.408Z,2.00
2022-09-04T13:42:35.073Z,1.70
2022-09-04T13:45:09.309Z,1.80
2022-09-04T13:49:25.573Z,1.80
2022-09-04T13:51:59.900Z,2.20
2022-09-04T13:54:57.010Z,1.70
2022-09-04T13:57:30.667Z,1.70
2022-09-04T14:03:55.614Z,1.80
2022-09-04T14:06:33.326Z,1.70
2022-09-04T14:09:06.024Z,2.00
2022-09-04T14:12:20.296Z,2.40
2022-09-04T14:16:17.075Z,1.60
2022-09-04T14:19:15.886Z,1.70
2022-09-04T14:22:25.865Z,1.90
2022-09-04T14:25:13.278Z,2.10
2022-09-04T14:28:35.629Z,4.50
2022-09-04T14:31:25.096Z,3.70
2022-09-04T14:34:38.221Z,2.90
2022-09-04T14:37:16.595Z,8.40
2022-09-04T14:39:55.411Z,3.30
2022-09-04T14:42:44.820Z,4.20
2022-09-04T14:45:48.532Z,7.00
2022-09-04T14:48:22.575Z,3.70
2022-09-04T14:51:41.195Z,3.10
2022-09-04T14:54:28.990Z,10.10
2022-09-04T14:57:11.703Z,3.10
2022-09-04T15:00:07.159Z,3.00
2022-09-04T15:02:58.996Z,2.50
2022-09-04T15:05:34.742Z,2.30
2022-09-04T15:08:11.872Z,2.00
2022-09-04T15:11:09.957Z,3.60
2022-09-04T15:14:24.693Z,3.00
2022-09-04T15:17:03.628Z,3.30
2022-09-04T15:19:46.856Z,7.40
2022-09-04T15:22:49.335Z,3.60
2022-09-04T15:26:06.910Z,4.40
2022-09-04T15:28:43.348Z,3.30
2022-09-04T15:31:17.945Z,4.70
2022-09-04T15:33:49.596Z,4.50
2022-09-04T15:36:25.967Z,2.90
2022-09-04T15:39:02.493Z,2.50
2022-09-04T15:41:56.013Z,2.20
2022-09-04T15:44:40.959Z,3.90
2022-09-04T15:48:19.583Z,4.10
2022-09-04T15:54:21.733Z,5.50
2022-09-04T15:56:53.147Z,8.20
2022-09-04T15:59:30.670Z,9.50
2022-09-04T16:02:19.925Z,5.00
2022-09-04T16:05:39.830Z,5.20
2022-09-04T16:08:27.188Z,3.50
2022-09-04T16:11:16.091Z,3.70
2022-09-04T16:13:56.942Z,3.10
2022-09-04T16:16:58.032Z,3.50
2022-09-04T16:22:26.643Z,4.80
2022-09-04T16:25:08.861Z,9.70
2022-09-04T16:27:52.604Z,6.50
2022-09-04T16:30:30.453Z,7.00
2022-09-04T16:33:00.747Z,3.40
2022-09-04T16:35:36.552Z,4.50
2022-09-04T16:38:26.109Z,3.50
2022-09-04T16:41:18.299Z,2.90
2022-09-04T16:44:12.149Z,4.10
2022-09-04T16:47:21.647Z,5.70
2022-09-04T16:50:00.466Z,4.30
2022-09-04T16:53:13.559Z,5.90
2022-09-04T16:56:52.717Z,4.80
2022-09-04T16:59:48.986Z,4.60
2022-09-04T17:02:45.728Z,3.80
2022-09-04T17:05:17.977Z,7.70
2022-09-04T17:09:05.757Z,9.90
2022-09-04T17:11:55.343Z,6.60
2022-09-04T17:15:06.820Z,10.20
2022-09-04T17:17:59.841Z,10.00
2022-09-04T17:21:38.293Z,13.10
2022-09-04T17:29:03.302Z,10.90
2022-09-04T17:31:50.389Z,4.60
2022-09-04T17:40:50.145Z,14.90
2022-09-04T17:40:56.106Z,10.20
2022-09-04T17:42:21.050Z,9.10
2022-09-04T17:45:02.684Z,10.20
2022-09-04T17:47:38.389Z,24.60
2022-09-04T17:50:16.999Z,17.20
2022-09-04T17:53:25.059Z,18.40
2022-09-04T17:57:23.612Z,13.60
2022-09-04T18:00:12.337Z,10.70
2022-09-04T18:03:40.091Z,10.60
2022-09-04T18:06:50.038Z,12.30
2022-09-04T18:09:55.602Z,12.00
2022-09-04T18:12:47.832Z,10.00
2022-09-04T18:15:35.081Z,8.40
2022-09-04T18:18:24.997Z,4.40
2022-09-04T18:21:26.989Z,8.30
2022-09-04T18:27:01.921Z,12.40
2022-09-04T18:33:25.300Z,10.20
2022-09-04T18:37:19.447Z,8.30
2022-09-04T18:37:23.203Z,6.80
2022-09-04T18:39:24.757Z,7.50
2022-09-04T18:50:21.797Z,6.90
2022-09-04T18:50:50.777Z,4.60
2022-09-04T18:50:53.391Z,5.10
2022-09-04T18:51:35.696Z,4.60
2022-09-04T18:54:22.847Z,4.60
2022-09-04T18:57:06.647Z,4.60
2022-09-04T18:59:44.259Z,8.20
2022-09-04T19:02:29.838Z,11.90
2022-09-04T19:05:09.394Z,10.50
2022-09-04T19:07:49.747Z,10.20
2022-09-04T19:10:35.246Z,11.30
2022-09-04T19:14:27.542Z,11.10
2022-09-04T19:17:49.000Z,7.30
2022-09-04T19:20:42.969Z,8.40
2022-09-04T19:27:33.267Z,14.40
2022-09-04T19:30:34.352Z,13.00
2022-09-04T19:33:21.013Z,9.30
2022-09-04T19:36:19.972Z,10.00
2022-09-04T19:46:02.085Z,11.10
2022-09-04T19:46:11.954Z,8.00
2022-09-04T19:48:32.516Z,4.30
2022-09-04T19:53:29.745Z,3.20
2022-09-04T19:54:19.667Z,3.60
2022-09-04T19:57:31.189Z,3.30
2022-09-04T19:59:46.075Z,2.20
2022-09-04T20:02:32.601Z,1.70
2022-09-04T20:05:04.959Z,2.20
2022-09-04T20:07:44.928Z,2.10
2022-09-04T20:10:21.921Z,1.50
2022-09-04T20:13:09.145Z,1.70
2022-09-04T20:15:53.226Z,2.30
2022-09-04T20:18:39.421Z,1.50
2022-09-04T20:21:20.288Z,1.70
2022-09-04T20:23:54.191Z,1.90
2022-09-04T20:26:42.583Z,1.80
2022-09-04T20:29:25.876Z,2.40
2022-09-04T20:32:00.302Z,3.10
2022-09-04T20:34:38.788Z,2.90
2022-09-04T20:37:53.895Z,1.90
2022-09-04T20:40:42.561Z,2.10
2022-09-04T20:43:31.955Z,2.00
2022-09-04T20:48:13.901Z,1.70
2022-09-04T20:52:56.058Z,2.30
2022-09-04T20:52:57.019Z,1.80
2022-09-04T20:55:38.455Z,1.50
2022-09-04T21:01:16.380Z,1.30
2022-09-04T21:03:23.995Z,1.40
2022-09-04T21:04:54.887Z,1.40
2022-09-04T21:07:41.155Z,1.20
2022-09-04T21:10:29.308Z,1.30
2022-09-04T21:13:14.012Z,1.40
2022-09-04T21:16:05.678Z,1.10
2022-09-04T21:18:46.146Z,1.00
2022-09-04T21:21:47.275Z,1.10
2022-09-04T21:24:37.773Z,1.30
2022-09-04T21:27:28.253Z,1.30
2022-09-04T21:30:02.996Z,1.10
2022-09-04T21:33:23.879Z,1.30
2022-09-04T21:35:55.774Z,1.40
2022-09-04T21:39:10.596Z,1.20
2022-09-04T21:42:25.462Z,1.20
2022-09-04T21:45:31.960Z,1.00
2022-09-04T21:48:37.148Z,1.60
2022-09-04T21:51:43.729Z,1.30
2022-09-04T21:56:21.438Z,1.10
2022-09-04T22:02:25.004Z,1.20
2022-09-04T22:02:46.275Z,1.20
2022-09-04T22:03:30.013Z,1.20
2022-09-04T22:07:11.098Z,1.20
2022-09-04T22:13:29.711Z,1.30
2022-09-04T22:13:42.850Z,1.10
2022-09-04T22:16:00.645Z,1.10
2022-09-04T22:18:47.905Z,1.20
2022-09-04T22:22:02.129Z,1.00
2022-09-04T22:24:51.848Z,1.20
2022-09-04T22:28:08.149Z,1.10
2022-09-04T22:31:03.759Z,1.20
2022-09-04T22:34:15.133Z,1.20
2022-09-04T22:37:09.201Z,1.20
2022-09-04T22:39:46.673Z,1.10
2022-09-04T22:42:33.837Z,1.10
2022-09-04T22:45:39.386Z,0.80
2022-09-04T22:48:43.424Z,1.10
2022-09-04T22:51:28.185Z,0.90
2022-09-04T22:54:18.469Z,0.90
2022-09-04T22:57:02.492Z,1.20
2022-09-04T23:00:01.971Z,1.00
2022-09-04T23:03:10.161Z,1.30
2022-09-04T23:07:54.770Z,1.00
2022-09-04T23:13:49.202Z,1.10
2022-09-04T23:13:52.294Z,1.10
2022-09-04T23:15:49.289Z,1.10
2022-09-04T23:22:02.537Z,1.20
2022-09-04T23:26:33.954Z,1.30
2022-09-04T23:26:41.691Z,1.30
2022-09-04T23:28:39.463Z,1.30
2022-09-04T23:31:28.547Z,1.10
2022-09-04T23:34:36.758Z,1.20
2022-09-04T23:38:03.170Z,1.10
2022-09-04T23:40:55.266Z,1.40
2022-09-04T23:44:29.155Z,1.30
2022-09-04T23:47:47.378Z,1.20
2022-09-04T23:50:43.565Z,1.00
2022-09-04T23:54:25.282Z,1.20
2022-09-04T23:57:35.351Z,1.10
